createdAt,value
2023-01-04T00:00:22.365Z,30.27
2023-01-04T00:03:11.844Z,30.13
2023-01-04T00:05:41.377Z,31.55
2023-01-04T00:08:10.882Z,30.45
2023-01-04T00:10:42.304Z,32.20
2023-01-04T00:13:11.667Z,30.60
2023-01-04T00:15:40.947Z,33.10
2023-01-04T00:18:10.283Z,33.23
2023-01-04T00:20:39.930Z,33.80
2023-01-04T00:23:09.143Z,33.50
2023-01-04T00:25:39.087Z,34.33
2023-01-04T00:28:08.480Z,34.65
2023-01-04T00:30:37.787Z,36.50
2023-01-04T00:33:07.138Z,32.73
2023-01-04T00:35:45.713Z,32.80
2023-01-04T00:38:15.596Z,33.75
2023-01-04T00:40:44.938Z,32.60
2023-01-04T00:43:14.563Z,32.20
2023-01-04T00:45:44.234Z,31.63
2023-01-04T00:48:13.801Z,32.00
2023-01-04T00:50:44.111Z,31.10
2023-01-04T00:53:14.002Z,31.85
2023-01-04T00:55:43.595Z,31.75
2023-01-04T00:58:12.973Z,31.10
2023-01-04T01:00:42.191Z,34.70
2023-01-04T01:03:11.728Z,32.55
2023-01-04T01:05:41.409Z,32.75
2023-01-04T01:08:26.379Z,33.50
2023-01-04T01:10:55.839Z,32.35
2023-01-04T01:13:25.281Z,32.25
2023-01-04T01:15:54.683Z,32.40
2023-01-04T01:18:24.113Z,33.20
2023-01-04T01:20:53.490Z,32.75
2023-01-04T01:23:22.715Z,33.80
2023-01-04T01:25:52.090Z,35.40
2023-01-04T01:28:21.397Z,34.53
2023-01-04T01:30:50.702Z,36.65
2023-01-04T01:33:20.155Z,34.80
2023-01-04T01:35:49.499Z,32.65
2023-01-04T01:38:20.075Z,32.10
2023-01-04T01:40:50.644Z,34.60
2023-01-04T01:43:21.575Z,34.35
2023-01-04T01:45:51.667Z,32.25
2023-01-04T01:48:22.454Z,35.35
2023-01-04T01:50:53.826Z,35.55
2023-01-04T01:53:25.405Z,37.03
2023-01-04T01:55:56.791Z,35.68
2023-01-04T01:58:27.492Z,35.17
2023-01-04T02:00:57.469Z,35.50
2023-01-04T02:03:30.159Z,36.80
2023-01-04T02:06:00.228Z,34.65
2023-01-04T02:08:31.223Z,37.57
2023-01-04T02:11:00.578Z,37.00
2023-01-04T02:13:45.328Z,37.00
2023-01-04T02:16:16.980Z,35.60
2023-01-04T02:18:48.850Z,34.90
2023-01-04T02:21:21.953Z,37.50
2023-01-04T02:24:08.559Z,37.60
2023-01-04T02:26:55.435Z,36.80
2023-01-04T02:29:39.643Z,35.80
2023-01-04T02:32:12.162Z,36.95
2023-01-04T02:34:45.563Z,37.15
2023-01-04T02:37:18.888Z,37.13
2023-01-04T02:39:53.177Z,37.75
2023-01-04T02:42:46.981Z,36.55
2023-01-04T02:45:24.800Z,38.40
2023-01-04T02:48:17.867Z,38.00
2023-01-04T02:50:51.880Z,37.20
2023-01-04T02:53:22.826Z,39.90
2023-01-04T02:55:55.332Z,39.25
2023-01-04T02:58:32.777Z,39.45
2023-01-04T03:01:21.782Z,40.90
2023-01-04T03:04:17.536Z,40.90
2023-01-04T03:06:51.279Z,40.65
2023-01-04T03:09:23.327Z,41.80
2023-01-04T03:12:13.677Z,41.80
2023-01-04T03:14:45.465Z,39.33
2023-01-04T03:17:16.439Z,41.15
2023-01-04T03:19:56.834Z,40.50
2023-01-04T03:22:48.386Z,41.15
2023-01-04T03:25:37.304Z,41.93
2023-01-04T03:28:25.999Z,41.05
2023-01-04T03:31:16.507Z,40.27
2023-01-04T03:34:04.226Z,40.05
2023-01-04T03:36:38.232Z,39.33
2023-01-04T03:39:28.177Z,39.15
2023-01-04T03:42:18.355Z,39.80
2023-01-04T03:45:11.236Z,39.10
2023-01-04T03:48:00.786Z,40.23
2023-01-04T03:50:33.159Z,40.37
2023-01-04T03:55:31.379Z,39.55
2023-01-04T03:58:01.062Z,41.20
2023-01-04T04:00:30.972Z,42.25
2023-01-04T04:03:06.687Z,39.95
2023-01-04T04:05:55.894Z,43.75
2023-01-04T04:08:26.742Z,42.03
2023-01-04T04:10:57.236Z,41.60
2023-01-04T04:13:26.459Z,40.80
2023-01-04T04:15:56.191Z,40.75
2023-01-04T04:18:25.782Z,38.75
2023-01-04T04:20:58.006Z,39.80
2023-01-04T04:23:27.238Z,41.00
2023-01-04T04:25:56.530Z,39.15
2023-01-04T04:28:26.045Z,41.85
2023-01-04T04:30:56.101Z,40.03
2023-01-04T04:33:25.482Z,40.23
2023-01-04T04:35:55.257Z,41.20
2023-01-04T04:38:24.631Z,40.43
2023-01-04T04:41:12.478Z,40.10
2023-01-04T04:43:41.810Z,40.13
2023-01-04T04:46:11.059Z,41.27
2023-01-04T04:48:40.675Z,39.25
2023-01-04T04:51:09.951Z,40.10
2023-01-04T04:53:39.279Z,39.47
2023-01-04T04:56:08.945Z,38.60
2023-01-04T04:58:38.618Z,39.75
2023-01-04T05:03:39.380Z,38.13
2023-01-04T05:06:08.714Z,40.20
2023-01-04T05:08:37.969Z,40.50
2023-01-04T05:11:08.144Z,39.40
2023-01-04T05:13:37.919Z,41.10
2023-01-04T05:16:08.381Z,40.80
2023-01-04T05:18:37.885Z,41.55
2023-01-04T05:21:07.224Z,42.40
2023-01-04T05:23:36.859Z,41.40
2023-01-04T05:26:06.463Z,44.67
2023-01-04T05:28:35.820Z,42.00
2023-01-04T05:31:05.447Z,43.75
2023-01-04T05:33:36.987Z,41.37
2023-01-04T05:36:06.842Z,43.05
2023-01-04T05:38:36.150Z,42.00
2023-01-04T05:41:26.120Z,39.37
2023-01-04T05:43:56.045Z,40.77
2023-01-04T05:46:25.477Z,41.00
2023-01-04T05:48:54.849Z,43.45
2023-01-04T05:51:24.431Z,42.40
2023-01-04T05:53:53.735Z,42.47
2023-01-04T05:56:23.059Z,43.30
2023-01-04T05:58:52.741Z,42.65
2023-01-04T06:01:22.268Z,42.87
2023-01-04T06:03:51.833Z,40.30
2023-01-04T06:06:21.310Z,42.90
2023-01-04T06:08:50.627Z,42.77
2023-01-04T06:11:25.599Z,41.47
2023-01-04T06:13:56.916Z,41.83
2023-01-04T06:16:26.824Z,41.37
2023-01-04T06:18:56.258Z,42.77
2023-01-04T06:21:25.822Z,42.20
2023-01-04T06:23:55.179Z,42.17
2023-01-04T06:26:24.470Z,42.75
2023-01-04T06:28:53.975Z,43.53
2023-01-04T06:31:23.206Z,43.73
2023-01-04T06:33:52.705Z,42.87
2023-01-04T06:36:21.988Z,44.53
2023-01-04T06:38:51.442Z,42.37
2023-01-04T06:41:20.966Z,42.23
2023-01-04T06:43:50.679Z,44.23
2023-01-04T06:46:20.477Z,42.65
2023-01-04T06:48:53.092Z,43.80
2023-01-04T06:51:22.711Z,43.27
2023-01-04T06:53:52.248Z,44.70
2023-01-04T06:56:22.617Z,43.53
2023-01-04T06:58:52.121Z,44.73
2023-01-04T07:01:21.683Z,43.70
2023-01-04T07:03:51.425Z,44.45
2023-01-04T07:06:23.911Z,41.33
2023-01-04T07:08:56.087Z,44.17
2023-01-04T07:11:25.538Z,42.00
2023-01-04T07:13:55.080Z,43.38
2023-01-04T07:16:24.486Z,44.47
2023-01-04T07:18:54.566Z,44.93
2023-01-04T07:21:25.379Z,45.13
2023-01-04T07:23:57.226Z,47.30
2023-01-04T07:26:26.933Z,45.52
2023-01-04T07:29:16.453Z,45.67
2023-01-04T07:31:47.170Z,45.47
2023-01-04T07:34:17.855Z,43.77
2023-01-04T07:36:47.472Z,42.30
2023-01-04T07:39:18.822Z,41.10
2023-01-04T07:41:48.967Z,42.37
2023-01-04T07:44:24.946Z,35.57
2023-01-04T07:46:54.673Z,33.85
2023-01-04T07:49:25.144Z,30.75
2023-01-04T07:51:54.862Z,30.73
2023-01-04T07:54:26.890Z,32.48
2023-01-04T07:56:56.496Z,30.50
2023-01-04T07:59:26.102Z,29.47
2023-01-04T08:01:59.124Z,27.90
2023-01-04T08:04:34.664Z,25.55
2023-01-04T08:07:05.875Z,20.90
2023-01-04T08:09:35.487Z,51.30
2023-01-04T08:12:05.646Z,38.53
2023-01-04T08:14:35.149Z,26.10
2023-01-04T08:17:04.834Z,23.63
2023-01-04T08:19:34.800Z,16.43
2023-01-04T08:22:04.191Z,14.80
2023-01-04T08:24:35.167Z,14.30
2023-01-04T08:27:06.097Z,24.32
2023-01-04T08:29:35.800Z,20.55
2023-01-04T08:32:08.039Z,16.37
2023-01-04T08:34:37.431Z,22.05
2023-01-04T08:37:07.002Z,27.13
2023-01-04T08:39:36.779Z,19.60
2023-01-04T08:42:19.466Z,16.03
2023-01-04T08:44:59.181Z,15.05
2023-01-04T08:47:31.196Z,15.32
2023-01-04T08:50:06.386Z,15.00
2023-01-04T08:52:39.976Z,14.50
2023-01-04T08:55:13.169Z,13.22
2023-01-04T08:57:43.657Z,13.70
2023-01-04T09:00:14.577Z,14.33
2023-01-04T09:02:44.332Z,13.40
2023-01-04T09:05:22.212Z,13.47
2023-01-04T09:07:52.613Z,12.28
2023-01-04T09:10:21.935Z,11.95
2023-01-04T09:12:51.452Z,11.48
2023-01-04T09:15:21.240Z,12.20
2023-01-04T09:18:29.289Z,11.03
2023-01-04T09:20:41.874Z,11.63
2023-01-04T09:23:11.523Z,10.75
2023-01-04T09:25:41.110Z,11.12
2023-01-04T09:28:10.791Z,10.70
2023-01-04T09:30:40.738Z,9.75
2023-01-04T09:33:10.176Z,8.70
2023-01-04T09:35:40.503Z,8.78
2023-01-04T09:38:10.214Z,8.83
2023-01-04T09:40:44.821Z,9.40
2023-01-04T09:43:21.350Z,8.13
2023-01-04T09:45:54.390Z,7.50
2023-01-04T09:48:26.847Z,7.53
2023-01-04T09:50:58.169Z,7.50
2023-01-04T09:53:31.545Z,6.55
2023-01-04T09:56:07.487Z,7.00
2023-01-04T09:58:42.213Z,6.75
2023-01-04T10:01:14.675Z,7.08
2023-01-04T10:06:17.609Z,6.70
2023-01-04T10:08:47.858Z,7.25
2023-01-04T10:11:24.424Z,7.80
2023-01-04T10:14:04.370Z,6.83
2023-01-04T10:17:12.221Z,7.45
2023-01-04T10:22:28.751Z,7.00
2023-01-04T10:25:02.742Z,6.90
2023-01-04T10:27:42.372Z,7.92
2023-01-04T10:30:22.016Z,7.65
2023-01-04T10:32:58.589Z,7.60
2023-01-04T10:35:28.376Z,7.53
2023-01-04T10:37:59.067Z,6.20
2023-01-04T10:40:29.365Z,6.00
2023-01-04T10:43:02.361Z,5.58
2023-01-04T10:45:35.984Z,5.80
2023-01-04T10:48:08.592Z,5.45
2023-01-04T10:50:43.434Z,5.45
2023-01-04T10:53:16.204Z,5.63
2023-01-04T10:56:25.482Z,5.17
2023-01-04T10:58:41.566Z,4.85
2023-01-04T11:01:12.864Z,5.30
2023-01-04T11:03:47.546Z,5.95
2023-01-04T11:06:20.560Z,5.80
2023-01-04T11:08:53.152Z,5.80
2023-01-04T11:11:25.005Z,6.12
2023-01-04T11:13:54.501Z,7.62
2023-01-04T11:16:24.139Z,6.37
2023-01-04T11:18:53.550Z,6.08
2023-01-04T11:21:27.113Z,5.72
2023-01-04T11:24:08.318Z,6.20
2023-01-04T11:26:48.464Z,6.47
2023-01-04T11:29:28.651Z,5.53
2023-01-04T11:32:03.057Z,6.03
2023-01-04T11:34:47.570Z,6.00
2023-01-04T11:37:28.056Z,5.53
2023-01-04T11:40:21.578Z,5.90
2023-01-04T11:42:52.304Z,6.42
2023-01-04T11:45:23.520Z,6.03
2023-01-04T11:47:54.088Z,6.20
2023-01-04T11:50:41.361Z,5.80
2023-01-04T11:53:24.769Z,6.22
2023-01-04T11:56:07.812Z,6.28
2023-01-04T11:58:37.294Z,5.50
2023-01-04T12:01:10.027Z,5.95
2023-01-04T12:03:40.410Z,5.90
2023-01-04T12:06:13.876Z,6.42
2023-01-04T12:08:43.309Z,5.42
2023-01-04T12:11:19.333Z,6.08
2023-01-04T12:13:48.828Z,5.50
2023-01-04T12:16:21.613Z,6.53
2023-01-04T12:18:51.431Z,6.22
2023-01-04T12:21:22.363Z,6.10
2023-01-04T12:23:52.404Z,5.50
2023-01-04T12:26:22.824Z,6.50
2023-01-04T12:29:12.227Z,5.50
2023-01-04T12:31:41.609Z,7.30
2023-01-04T12:34:29.147Z,6.35
2023-01-04T12:37:04.807Z,6.37
2023-01-04T12:39:41.307Z,7.00
2023-01-04T12:42:20.577Z,6.92
2023-01-04T12:45:22.542Z,7.50
2023-01-04T12:48:12.110Z,7.00
2023-01-04T12:51:14.608Z,7.65
2023-01-04T12:53:50.162Z,7.00
2023-01-04T12:56:19.660Z,7.80
2023-01-04T13:02:13.739Z,7.67
2023-01-04T13:04:43.477Z,7.85
2023-01-04T13:07:17.030Z,7.90
2023-01-04T13:09:52.788Z,7.25
2023-01-04T13:12:35.762Z,7.42
2023-01-04T13:15:07.271Z,7.92
2023-01-04T13:17:38.811Z,7.85
2023-01-04T13:20:16.895Z,7.67
2023-01-04T13:22:49.426Z,8.28
2023-01-04T13:25:21.880Z,8.30
2023-01-04T13:27:55.949Z,8.43
2023-01-04T13:30:30.601Z,8.88
2023-01-04T13:36:03.802Z,8.68
2023-01-04T13:38:34.654Z,9.65
2023-01-04T13:41:07.042Z,8.80
2023-01-04T13:46:13.447Z,8.33
2023-01-04T13:48:44.273Z,8.88
2023-01-04T13:51:15.566Z,9.13
2023-01-04T13:53:53.120Z,8.13
2023-01-04T13:56:24.755Z,8.53
2023-01-04T13:58:54.291Z,9.18
2023-01-04T14:01:25.096Z,8.55
2023-01-04T14:03:55.765Z,9.38
2023-01-04T14:06:27.769Z,9.48
2023-01-04T14:08:59.563Z,8.93
2023-01-04T14:12:06.229Z,9.65
2023-01-04T14:14:39.214Z,9.80
2023-01-04T14:17:15.767Z,9.78
2023-01-04T14:19:46.637Z,9.98
2023-01-04T14:22:24.481Z,9.23
2023-01-04T14:25:10.525Z,9.30
2023-01-04T14:27:43.408Z,8.70
2023-01-04T14:30:29.843Z,9.50
2023-01-04T14:33:00.292Z,10.25
2023-01-04T14:35:30.272Z,9.70
2023-01-04T14:38:03.160Z,9.60
2023-01-04T14:40:32.605Z,9.48
2023-01-04T14:43:02.137Z,10.05
2023-01-04T14:45:31.423Z,8.53
2023-01-04T14:48:00.861Z,9.20
2023-01-04T14:50:30.552Z,8.65
2023-01-04T14:53:00.005Z,9.35
2023-01-04T14:55:30.615Z,8.98
2023-01-04T14:58:00.217Z,8.75
2023-01-04T15:00:29.851Z,9.10
2023-01-04T15:02:59.802Z,9.43
2023-01-04T15:05:32.865Z,9.25
2023-01-04T15:08:04.013Z,9.63
2023-01-04T15:11:09.612Z,9.53
2023-01-04T15:13:39.932Z,36.45
2023-01-04T15:16:12.068Z,15.65
2023-01-04T15:18:50.492Z,11.05
2023-01-04T15:21:19.882Z,11.35
2023-01-04T15:23:49.184Z,10.95
2023-01-04T15:26:18.792Z,10.70
2023-01-04T15:28:48.017Z,11.35
2023-01-04T15:31:22.388Z,12.58
2023-01-04T15:33:55.291Z,12.63
2023-01-04T15:36:25.040Z,12.73
2023-01-04T15:38:55.188Z,14.07
2023-01-04T15:41:43.093Z,13.23
2023-01-04T15:44:12.757Z,13.00
2023-01-04T15:46:42.176Z,13.43
2023-01-04T15:49:16.854Z,13.37
2023-01-04T15:51:49.160Z,13.40
2023-01-04T15:54:21.002Z,12.07
2023-01-04T15:56:50.546Z,12.58
2023-01-04T15:59:20.415Z,11.22
2023-01-04T16:01:49.909Z,12.20
2023-01-04T16:04:19.411Z,11.97
2023-01-04T16:06:48.839Z,11.83
2023-01-04T16:09:18.295Z,11.50
2023-01-04T16:12:05.554Z,10.95
2023-01-04T16:14:36.027Z,11.05
2023-01-04T16:17:05.564Z,11.70
2023-01-04T16:19:35.209Z,10.90
2023-01-04T16:22:04.689Z,10.80
2023-01-04T16:27:23.563Z,10.53
2023-01-04T16:29:53.679Z,10.60
2023-01-04T16:32:23.383Z,10.00
2023-01-04T16:34:53.080Z,10.47
2023-01-04T16:37:25.958Z,9.18
2023-01-04T16:40:10.848Z,9.83
2023-01-04T16:42:40.458Z,11.90
2023-01-04T16:45:10.746Z,12.98
2023-01-04T16:47:41.603Z,15.38
2023-01-04T16:50:11.868Z,17.87
2023-01-04T16:52:41.309Z,18.57
2023-01-04T16:55:10.957Z,18.82
2023-01-04T16:57:41.168Z,17.63
2023-01-04T17:00:11.613Z,17.63
2023-01-04T17:02:41.107Z,20.67
2023-01-04T17:05:10.657Z,22.60
2023-01-04T17:07:40.431Z,23.50
2023-01-04T17:10:10.421Z,23.70
2023-01-04T17:12:49.210Z,22.32
2023-01-04T17:18:12.408Z,23.87
2023-01-04T17:20:41.804Z,29.60
2023-01-04T17:23:11.165Z,27.00
2023-01-04T17:25:40.606Z,25.60
2023-01-04T17:28:10.159Z,27.20
2023-01-04T17:30:39.691Z,29.07
2023-01-04T17:33:09.143Z,31.23
2023-01-04T17:35:39.401Z,31.37
2023-01-04T17:38:09.011Z,32.03
2023-01-04T17:40:38.474Z,30.07
2023-01-04T17:43:08.144Z,29.50
2023-01-04T17:45:56.070Z,29.18
2023-01-04T17:48:25.617Z,28.70
2023-01-04T17:50:54.999Z,28.37
2023-01-04T17:53:24.544Z,28.70
2023-01-04T17:58:23.978Z,28.87
2023-01-04T18:00:53.225Z,34.03
2023-01-04T18:03:22.900Z,33.37
2023-01-04T18:06:07.062Z,33.53
2023-01-04T18:08:44.266Z,32.57
2023-01-04T18:11:13.733Z,31.50
2023-01-04T18:13:44.732Z,29.60
2023-01-04T18:16:30.305Z,30.50
2023-01-04T18:19:00.516Z,59.80
2023-01-04T18:21:31.184Z,53.85
2023-01-04T18:24:34.687Z,51.60
2023-01-04T18:29:41.626Z,43.33
2023-01-04T18:32:11.178Z,53.30
2023-01-04T18:34:40.532Z,58.00
2023-01-04T18:37:10.247Z,59.90
2023-01-04T18:39:39.891Z,58.80
2023-01-04T18:42:10.005Z,61.40
2023-01-04T18:44:44.197Z,58.87
2023-01-04T18:47:17.827Z,59.45
2023-01-04T18:49:48.195Z,59.05
2023-01-04T18:52:18.491Z,58.90
2023-01-04T18:54:48.142Z,56.35
2023-01-04T18:59:51.135Z,50.45
2023-01-04T19:02:21.078Z,52.75
2023-01-04T19:04:53.245Z,46.42
2023-01-04T19:07:23.193Z,43.00
2023-01-04T19:09:53.423Z,41.90
2023-01-04T19:12:22.661Z,40.10
2023-01-04T19:14:52.212Z,39.45
2023-01-04T19:17:23.900Z,40.75
2023-01-04T19:19:53.542Z,44.33
2023-01-04T19:22:22.821Z,45.45
2023-01-04T19:24:52.157Z,44.70
2023-01-04T19:27:21.943Z,43.20
2023-01-04T19:29:52.877Z,40.15
2023-01-04T19:32:22.312Z,41.25
2023-01-04T19:34:51.828Z,39.65
2023-01-04T19:37:23.469Z,39.60
2023-01-04T19:39:54.122Z,37.17
2023-01-04T19:42:23.765Z,36.55
2023-01-04T19:44:58.263Z,35.80
2023-01-04T19:47:48.045Z,37.75
2023-01-04T19:50:17.885Z,38.55
2023-01-04T19:52:54.012Z,41.10
2023-01-04T19:55:29.026Z,43.50
2023-01-04T19:57:58.824Z,44.70
2023-01-04T20:00:28.211Z,41.80
2023-01-04T20:02:57.771Z,41.33
2023-01-04T20:05:27.262Z,38.77
2023-01-04T20:07:56.743Z,38.55
2023-01-04T20:10:26.130Z,39.10
2023-01-04T20:12:56.452Z,39.30
2023-01-04T20:15:25.952Z,35.70
2023-01-04T20:17:55.301Z,35.55
2023-01-04T20:20:25.117Z,36.27
2023-01-04T20:22:54.645Z,34.75
2023-01-04T20:25:24.561Z,42.30
2023-01-04T20:27:53.941Z,48.50
2023-01-04T20:30:23.572Z,43.97
2023-01-04T20:32:53.050Z,43.05
2023-01-04T20:35:24.393Z,43.07
2023-01-04T20:37:56.297Z,39.60
2023-01-04T20:40:27.013Z,36.65
2023-01-04T20:43:15.064Z,37.20
2023-01-04T20:45:45.325Z,37.85
2023-01-04T20:48:18.147Z,38.50
2023-01-04T20:50:47.751Z,37.95
2023-01-04T20:53:17.263Z,37.95
2023-01-04T20:55:46.680Z,41.10
2023-01-04T20:58:16.499Z,41.20
2023-01-04T21:00:47.141Z,39.05
2023-01-04T21:03:16.871Z,40.10
2023-01-04T21:05:46.887Z,38.40
2023-01-04T21:08:17.287Z,36.87
2023-01-04T21:10:47.092Z,38.05
2023-01-04T21:13:16.395Z,38.95
2023-01-04T21:15:45.990Z,36.33
2023-01-04T21:18:15.731Z,34.85
2023-01-04T21:20:46.354Z,37.25
2023-01-04T21:23:17.170Z,40.85
2023-01-04T21:25:48.895Z,44.65
2023-01-04T21:28:20.423Z,47.20
2023-01-04T21:30:51.287Z,47.40
2023-01-04T21:33:20.861Z,47.30
2023-01-04T21:35:50.458Z,45.47
2023-01-04T21:38:19.873Z,43.20
2023-01-04T21:40:49.593Z,42.65
2023-01-04T21:43:36.784Z,39.90
2023-01-04T21:46:08.565Z,41.60
2023-01-04T21:48:37.994Z,42.10
2023-01-04T21:51:07.992Z,43.15
2023-01-04T21:53:37.738Z,44.85
2023-01-04T21:56:09.188Z,43.90
2023-01-04T21:58:39.293Z,45.73
2023-01-04T22:01:09.602Z,46.35
2023-01-04T22:03:39.173Z,46.80
2023-01-04T22:06:08.857Z,48.70
2023-01-04T22:08:38.517Z,48.93
2023-01-04T22:11:08.208Z,49.30
2023-01-04T22:13:38.435Z,49.70
2023-01-04T22:16:08.769Z,47.50
2023-01-04T22:18:39.302Z,47.50
2023-01-04T22:21:11.566Z,46.65
2023-01-04T22:26:09.801Z,47.15
2023-01-04T22:28:39.892Z,49.30
2023-01-04T22:31:10.891Z,47.00
2023-01-04T22:33:41.121Z,48.80
2023-01-04T22:36:19.039Z,45.10
2023-01-04T22:38:53.439Z,45.85
2023-01-04T22:41:23.963Z,44.13
2023-01-04T22:43:58.208Z,44.95
2023-01-04T22:46:28.352Z,44.33
2023-01-04T22:48:58.722Z,42.70
2023-01-04T22:51:29.302Z,41.30
2023-01-04T22:54:00.119Z,40.55
2023-01-04T22:56:29.866Z,39.95
2023-01-04T22:58:59.452Z,37.35
2023-01-04T23:01:30.165Z,37.45
2023-01-04T23:04:00.357Z,37.00
2023-01-04T23:06:30.432Z,34.60
2023-01-04T23:09:00.566Z,33.05
2023-01-04T23:11:30.879Z,32.87
2023-01-04T23:14:04.061Z,32.10
2023-01-04T23:16:33.925Z,30.83
2023-01-04T23:19:04.541Z,30.45
2023-01-04T23:21:34.755Z,28.55
2023-01-04T23:24:04.712Z,28.40
2023-01-04T23:26:34.197Z,26.87
2023-01-04T23:29:03.995Z,29.17
2023-01-04T23:31:33.775Z,30.75
2023-01-04T23:34:04.799Z,29.35
2023-01-04T23:36:34.625Z,29.85
2023-01-04T23:39:05.388Z,30.50
2023-01-04T23:41:47.701Z,28.95
2023-01-04T23:44:18.975Z,29.50
2023-01-04T23:46:51.586Z,29.95
2023-01-04T23:49:21.376Z,30.40
2023-01-04T23:51:51.320Z,29.85
2023-01-04T23:54:20.961Z,31.10
2023-01-04T23:56:50.256Z,31.20
2023-01-04T23:59:20.312Z,30.47
